sensor_id;sensor_type;location;lat;lon;timestamp;P1;durP1;ratioP1;P2;durP2;ratioP2
35110;SDS011;21290;50.158;8.658;2022-08-27T00:01:21;13.95;;;8.82;;
35110;SDS011;21290;50.158;8.658;2022-08-27T00:03:48;18.13;;;8.77;;
35110;SDS011;21290;50.158;8.658;2022-08-27T00:06:18;14.70;;;8.00;;
35110;SDS011;21290;50.158;8.658;2022-08-27T00:08:46;11.13;;;8.07;;
35110;SDS011;21290;50.158;8.658;2022-08-27T00:11:15;13.05;;;7.85;;
35110;SDS011;21290;50.158;8.658;2022-08-27T00:13:43;12.32;;;8.23;;
35110;SDS011;21290;50.158;8.658;2022-08-27T00:16:12;15.02;;;7.70;;
35110;SDS011;21290;50.158;8.658;2022-08-27T00:18:42;13.88;;;7.80;;
35110;SDS011;21290;50.158;8.658;2022-08-27T00:21:13;10.50;;;7.78;;
35110;SDS011;21290;50.158;8.658;2022-08-27T00:23:44;15.45;;;8.55;;
35110;SDS011;21290;50.158;8.658;2022-08-27T00:26:11;12.50;;;7.93;;
35110;SDS011;21290;50.158;8.658;2022-08-27T00:28:42;12.32;;;7.88;;
35110;SDS011;21290;50.158;8.658;2022-08-27T00:31:09;16.17;;;7.93;;
35110;SDS011;21290;50.158;8.658;2022-08-27T00:33:37;11.02;;;7.65;;
35110;SDS011;21290;50.158;8.658;2022-08-27T00:36:04;12.55;;;7.82;;
35110;SDS011;21290;50.158;8.658;2022-08-27T00:38:33;16.02;;;7.78;;
35110;SDS011;21290;50.158;8.658;2022-08-27T00:41:04;13.95;;;8.52;;
35110;SDS011;21290;50.158;8.658;2022-08-27T00:46:23;14.00;;;8.32;;
35110;SDS011;21290;50.158;8.658;2022-08-27T00:48:51;13.50;;;8.00;;
35110;SDS011;21290;50.158;8.658;2022-08-27T00:53:47;16.23;;;7.80;;
35110;SDS011;21290;50.158;8.658;2022-08-27T00:56:20;13.80;;;8.07;;
35110;SDS011;21290;50.158;8.658;2022-08-27T00:58:51;13.25;;;8.05;;
35110;SDS011;21290;50.158;8.658;2022-08-27T01:01:21;22.02;;;8.80;;
35110;SDS011;21290;50.158;8.658;2022-08-27T01:03:55;15.95;;;8.27;;
35110;SDS011;21290;50.158;8.658;2022-08-27T01:06:27;15.63;;;7.90;;
35110;SDS011;21290;50.158;8.658;2022-08-27T01:08:59;14.82;;;7.25;;
35110;SDS011;21290;50.158;8.658;2022-08-27T01:11:33;15.13;;;7.07;;
35110;SDS011;21290;50.158;8.658;2022-08-27T01:14:01;10.65;;;7.15;;
35110;SDS011;21290;50.158;8.658;2022-08-27T01:16:30;11.55;;;7.20;;
35110;SDS011;21290;50.158;8.658;2022-08-27T01:19:05;12.88;;;7.60;;
35110;SDS011;21290;50.158;8.658;2022-08-27T01:24:22;13.75;;;7.43;;
35110;SDS011;21290;50.158;8.658;2022-08-27T01:26:55;13.32;;;7.18;;
35110;SDS011;21290;50.158;8.658;2022-08-27T01:29:25;14.52;;;6.88;;
35110;SDS011;21290;50.158;8.658;2022-08-27T01:31:57;18.95;;;7.50;;
35110;SDS011;21290;50.158;8.658;2022-08-27T01:34:41;13.85;;;7.13;;
35110;SDS011;21290;50.158;8.658;2022-08-27T01:37:08;13.32;;;7.38;;
35110;SDS011;21290;50.158;8.658;2022-08-27T01:39:38;17.73;;;7.40;;
35110;SDS011;21290;50.158;8.658;2022-08-27T01:42:17;17.90;;;7.38;;
35110;SDS011;21290;50.158;8.658;2022-08-27T01:44:54;13.13;;;6.97;;
35110;SDS011;21290;50.158;8.658;2022-08-27T01:47:29;14.80;;;7.35;;
35110;SDS011;21290;50.158;8.658;2022-08-27T01:49:57;14.90;;;7.43;;
35110;SDS011;21290;50.158;8.658;2022-08-27T01:52:27;14.82;;;7.18;;
35110;SDS011;21290;50.158;8.658;2022-08-27T01:54:55;13.48;;;7.90;;
35110;SDS011;21290;50.158;8.658;2022-08-27T01:57:24;18.67;;;6.70;;
35110;SDS011;21290;50.158;8.658;2022-08-27T01:59:52;14.52;;;6.85;;
35110;SDS011;21290;50.158;8.658;2022-08-27T02:02:23;17.67;;;7.30;;
35110;SDS011;21290;50.158;8.658;2022-08-27T02:04:50;12.23;;;7.25;;
35110;SDS011;21290;50.158;8.658;2022-08-27T02:07:17;13.70;;;7.45;;
35110;SDS011;21290;50.158;8.658;2022-08-27T02:09:45;19.92;;;8.57;;
35110;SDS011;21290;50.158;8.658;2022-08-27T02:12:14;16.20;;;7.68;;
35110;SDS011;21290;50.158;8.658;2022-08-27T02:14:41;14.82;;;7.72;;
35110;SDS011;21290;50.158;8.658;2022-08-27T02:17:09;9.32;;;6.95;;
35110;SDS011;21290;50.158;8.658;2022-08-27T02:19:37;14.95;;;7.70;;
35110;SDS011;21290;50.158;8.658;2022-08-27T02:22:04;13.27;;;7.57;;
35110;SDS011;21290;50.158;8.658;2022-08-27T02:24:30;11.52;;;7.60;;
35110;SDS011;21290;50.158;8.658;2022-08-27T02:26:57;14.32;;;7.72;;
35110;SDS011;21290;50.158;8.658;2022-08-27T02:29:24;14.95;;;8.23;;
35110;SDS011;21290;50.158;8.658;2022-08-27T02:31:51;18.48;;;8.20;;
35110;SDS011;21290;50.158;8.658;2022-08-27T02:34:18;15.27;;;7.60;;
35110;SDS011;21290;50.158;8.658;2022-08-27T02:36:44;17.17;;;8.68;;
35110;SDS011;21290;50.158;8.658;2022-08-27T02:39:12;15.10;;;7.70;;
35110;SDS011;21290;50.158;8.658;2022-08-27T02:41:39;14.68;;;7.57;;
35110;SDS011;21290;50.158;8.658;2022-08-27T02:44:05;12.32;;;7.53;;
35110;SDS011;21290;50.158;8.658;2022-08-27T02:46:36;10.93;;;7.72;;
35110;SDS011;21290;50.158;8.658;2022-08-27T02:49:04;15.30;;;8.10;;
35110;SDS011;21290;50.158;8.658;2022-08-27T02:51:32;14.68;;;8.40;;
35110;SDS011;21290;50.158;8.658;2022-08-27T02:53:59;16.05;;;8.13;;
35110;SDS011;21290;50.158;8.658;2022-08-27T02:58:54;12.43;;;7.68;;
35110;SDS011;21290;50.158;8.658;2022-08-27T03:01:21;12.57;;;7.70;;
35110;SDS011;21290;50.158;8.658;2022-08-27T03:03:49;14.18;;;7.93;;
35110;SDS011;21290;50.158;8.658;2022-08-27T03:06:21;18.40;;;9.00;;
35110;SDS011;21290;50.158;8.658;2022-08-27T03:08:50;19.77;;;8.10;;
35110;SDS011;21290;50.158;8.658;2022-08-27T03:11:19;15.93;;;8.32;;
35110;SDS011;21290;50.158;8.658;2022-08-27T03:13:49;14.32;;;8.27;;
35110;SDS011;21290;50.158;8.658;2022-08-27T03:16:16;16.02;;;8.23;;
35110;SDS011;21290;50.158;8.658;2022-08-27T03:18:43;17.33;;;8.38;;
35110;SDS011;21290;50.158;8.658;2022-08-27T03:21:15;12.93;;;8.30;;
35110;SDS011;21290;50.158;8.658;2022-08-27T03:23:52;12.70;;;8.20;;
35110;SDS011;21290;50.158;8.658;2022-08-27T03:26:19;13.15;;;8.50;;
35110;SDS011;21290;50.158;8.658;2022-08-27T03:28:46;15.30;;;8.30;;
35110;SDS011;21290;50.158;8.658;2022-08-27T03:31:18;13.65;;;7.82;;
35110;SDS011;21290;50.158;8.658;2022-08-27T03:33:53;14.68;;;9.40;;
35110;SDS011;21290;50.158;8.658;2022-08-27T03:36:26;20.80;;;8.55;;
35110;SDS011;21290;50.158;8.658;2022-08-27T03:38:55;10.82;;;8.05;;
35110;SDS011;21290;50.158;8.658;2022-08-27T03:41:23;16.30;;;8.35;;
35110;SDS011;21290;50.158;8.658;2022-08-27T03:44:15;13.32;;;7.97;;
35110;SDS011;21290;50.158;8.658;2022-08-27T03:46:47;11.75;;;8.32;;
35110;SDS011;21290;50.158;8.658;2022-08-27T03:49:15;14.13;;;8.02;;
35110;SDS011;21290;50.158;8.658;2022-08-27T03:51:46;14.93;;;8.27;;
35110;SDS011;21290;50.158;8.658;2022-08-27T03:54:14;12.43;;;7.88;;
35110;SDS011;21290;50.158;8.658;2022-08-27T03:56:40;12.65;;;7.53;;
35110;SDS011;21290;50.158;8.658;2022-08-27T03:59:07;13.48;;;7.95;;
35110;SDS011;21290;50.158;8.658;2022-08-27T04:01:36;16.27;;;9.23;;
35110;SDS011;21290;50.158;8.658;2022-08-27T04:04:03;16.50;;;8.00;;
35110;SDS011;21290;50.158;8.658;2022-08-27T04:06:30;15.70;;;7.88;;
35110;SDS011;21290;50.158;8.658;2022-08-27T04:09:02;11.88;;;7.22;;
35110;SDS011;21290;50.158;8.658;2022-08-27T04:11:29;14.40;;;8.20;;
35110;SDS011;21290;50.158;8.658;2022-08-27T04:14:02;13.05;;;7.97;;
35110;SDS011;21290;50.158;8.658;2022-08-27T04:16:52;12.32;;;7.97;;
35110;SDS011;21290;50.158;8.658;2022-08-27T04:19:19;13.30;;;8.57;;
35110;SDS011;21290;50.158;8.658;2022-08-27T04:21:52;15.07;;;7.93;;
35110;SDS011;21290;50.158;8.658;2022-08-27T04:24:19;12.95;;;8.25;;
35110;SDS011;21290;50.158;8.658;2022-08-27T04:26:46;19.80;;;7.97;;
35110;SDS011;21290;50.158;8.658;2022-08-27T04:29:14;13.98;;;7.38;;
35110;SDS011;21290;50.158;8.658;2022-08-27T04:31:41;19.50;;;7.78;;
35110;SDS011;21290;50.158;8.658;2022-08-27T04:34:07;15.02;;;8.10;;
35110;SDS011;21290;50.158;8.658;2022-08-27T04:36:34;13.90;;;8.25;;
35110;SDS011;21290;50.158;8.658;2022-08-27T04:39:01;14.85;;;8.13;;
35110;SDS011;21290;50.158;8.658;2022-08-27T04:41:28;11.10;;;7.55;;
35110;SDS011;21290;50.158;8.658;2022-08-27T04:44:01;14.35;;;7.82;;
35110;SDS011;21290;50.158;8.658;2022-08-27T04:46:34;17.35;;;7.88;;
35110;SDS011;21290;50.158;8.658;2022-08-27T04:49:05;11.82;;;6.90;;
35110;SDS011;21290;50.158;8.658;2022-08-27T04:51:36;12.13;;;7.18;;
35110;SDS011;21290;50.158;8.658;2022-08-27T04:54:06;12.40;;;7.22;;
35110;SDS011;21290;50.158;8.658;2022-08-27T04:56:34;10.93;;;7.55;;
35110;SDS011;21290;50.158;8.658;2022-08-27T04:59:02;11.25;;;7.15;;
35110;SDS011;21290;50.158;8.658;2022-08-27T05:01:34;13.07;;;6.82;;
35110;SDS011;21290;50.158;8.658;2022-08-27T05:04:02;14.43;;;7.43;;
35110;SDS011;21290;50.158;8.658;2022-08-27T05:06:30;12.67;;;7.07;;
35110;SDS011;21290;50.158;8.658;2022-08-27T05:08:57;12.70;;;7.07;;
35110;SDS011;21290;50.158;8.658;2022-08-27T05:11:25;13.10;;;6.63;;
35110;SDS011;21290;50.158;8.658;2022-08-27T05:14:04;12.57;;;6.70;;
35110;SDS011;21290;50.158;8.658;2022-08-27T05:16:33;10.25;;;6.95;;
35110;SDS011;21290;50.158;8.658;2022-08-27T05:19:04;12.75;;;7.05;;
35110;SDS011;21290;50.158;8.658;2022-08-27T05:21:34;13.07;;;7.07;;
35110;SDS011;21290;50.158;8.658;2022-08-27T05:24:04;11.65;;;6.60;;
35110;SDS011;21290;50.158;8.658;2022-08-27T05:26:32;13.88;;;7.07;;
35110;SDS011;21290;50.158;8.658;2022-08-27T05:31:29;11.45;;;6.65;;
35110;SDS011;21290;50.158;8.658;2022-08-27T05:33:55;13.00;;;6.97;;
35110;SDS011;21290;50.158;8.658;2022-08-27T05:36:25;13.15;;;6.97;;
35110;SDS011;21290;50.158;8.658;2022-08-27T05:38:57;9.00;;;6.00;;
35110;SDS011;21290;50.158;8.658;2022-08-27T05:41:27;11.13;;;6.85;;
35110;SDS011;21290;50.158;8.658;2022-08-27T05:44:00;11.38;;;6.63;;
35110;SDS011;21290;50.158;8.658;2022-08-27T05:46:50;11.02;;;6.63;;
35110;SDS011;21290;50.158;8.658;2022-08-27T05:49:18;13.23;;;6.60;;
35110;SDS011;21290;50.158;8.658;2022-08-27T05:51:45;10.65;;;6.20;;
35110;SDS011;21290;50.158;8.658;2022-08-27T05:54:11;9.57;;;6.80;;
35110;SDS011;21290;50.158;8.658;2022-08-27T05:56:44;12.77;;;6.85;;
35110;SDS011;21290;50.158;8.658;2022-08-27T05:59:12;11.20;;;6.25;;
35110;SDS011;21290;50.158;8.658;2022-08-27T06:02:00;9.70;;;6.45;;
35110;SDS011;21290;50.158;8.658;2022-08-27T06:04:27;14.55;;;7.00;;
35110;SDS011;21290;50.158;8.658;2022-08-27T06:06:54;16.05;;;7.05;;
35110;SDS011;21290;50.158;8.658;2022-08-27T06:09:25;12.25;;;6.55;;
35110;SDS011;21290;50.158;8.658;2022-08-27T06:11:54;14.02;;;6.88;;
35110;SDS011;21290;50.158;8.658;2022-08-27T06:14:24;15.70;;;6.78;;
35110;SDS011;21290;50.158;8.658;2022-08-27T06:16:52;12.95;;;7.10;;
35110;SDS011;21290;50.158;8.658;2022-08-27T06:19:21;12.43;;;6.15;;
35110;SDS011;21290;50.158;8.658;2022-08-27T06:21:48;10.70;;;6.30;;
35110;SDS011;21290;50.158;8.658;2022-08-27T06:24:35;13.68;;;6.80;;
35110;SDS011;21290;50.158;8.658;2022-08-27T06:27:04;13.68;;;5.88;;
35110;SDS011;21290;50.158;8.658;2022-08-27T06:29:31;14.73;;;6.10;;
35110;SDS011;21290;50.158;8.658;2022-08-27T06:32:00;10.57;;;6.20;;
35110;SDS011;21290;50.158;8.658;2022-08-27T06:34:28;13.82;;;6.22;;
35110;SDS011;21290;50.158;8.658;2022-08-27T06:36:56;12.57;;;5.82;;
35110;SDS011;21290;50.158;8.658;2022-08-27T06:39:23;12.75;;;6.20;;
35110;SDS011;21290;50.158;8.658;2022-08-27T06:41:50;14.10;;;6.22;;
35110;SDS011;21290;50.158;8.658;2022-08-27T06:44:20;11.43;;;5.55;;
35110;SDS011;21290;50.158;8.658;2022-08-27T06:46:51;14.10;;;6.00;;
35110;SDS011;21290;50.158;8.658;2022-08-27T06:49:18;14.65;;;6.00;;
35110;SDS011;21290;50.158;8.658;2022-08-27T06:51:46;14.38;;;6.40;;
35110;SDS011;21290;50.158;8.658;2022-08-27T06:54:14;14.80;;;6.93;;
35110;SDS011;21290;50.158;8.658;2022-08-27T06:56:42;13.55;;;7.00;;
35110;SDS011;21290;50.158;8.658;2022-08-27T06:59:10;10.43;;;6.28;;
35110;SDS011;21290;50.158;8.658;2022-08-27T07:01:40;17.23;;;6.60;;
35110;SDS011;21290;50.158;8.658;2022-08-27T07:04:11;13.75;;;6.35;;
35110;SDS011;21290;50.158;8.658;2022-08-27T07:06:41;11.75;;;5.88;;
35110;SDS011;21290;50.158;8.658;2022-08-27T07:09:08;11.07;;;5.97;;
35110;SDS011;21290;50.158;8.658;2022-08-27T07:11:37;9.93;;;5.93;;
35110;SDS011;21290;50.158;8.658;2022-08-27T07:14:05;12.20;;;6.22;;
35110;SDS011;21290;50.158;8.658;2022-08-27T07:16:32;15.38;;;6.50;;
35110;SDS011;21290;50.158;8.658;2022-08-27T07:19:02;11.20;;;5.82;;
35110;SDS011;21290;50.158;8.658;2022-08-27T07:21:33;13.50;;;6.15;;
35110;SDS011;21290;50.158;8.658;2022-08-27T07:24:00;10.35;;;5.90;;
35110;SDS011;21290;50.158;8.658;2022-08-27T07:26:31;10.13;;;5.80;;
35110;SDS011;21290;50.158;8.658;2022-08-27T07:29:00;12.27;;;6.18;;
35110;SDS011;21290;50.158;8.658;2022-08-27T07:31:27;8.10;;;5.35;;
35110;SDS011;21290;50.158;8.658;2022-08-27T07:33:54;12.60;;;6.55;;
35110;SDS011;21290;50.158;8.658;2022-08-27T07:36:22;7.82;;;5.15;;
35110;SDS011;21290;50.158;8.658;2022-08-27T07:38:49;8.85;;;5.47;;
35110;SDS011;21290;50.158;8.658;2022-08-27T07:41:27;10.57;;;5.25;;
35110;SDS011;21290;50.158;8.658;2022-08-27T07:44:01;12.38;;;6.03;;
35110;SDS011;21290;50.158;8.658;2022-08-27T07:46:51;9.85;;;5.63;;
35110;SDS011;21290;50.158;8.658;2022-08-27T07:49:21;13.57;;;5.53;;
35110;SDS011;21290;50.158;8.658;2022-08-27T07:51:52;9.27;;;4.57;;
35110;SDS011;21290;50.158;8.658;2022-08-27T07:54:21;6.78;;;4.43;;
35110;SDS011;21290;50.158;8.658;2022-08-27T07:56:48;5.65;;;4.25;;
35110;SDS011;21290;50.158;8.658;2022-08-27T07:59:21;6.75;;;3.90;;
35110;SDS011;21290;50.158;8.658;2022-08-27T08:01:54;7.32;;;4.00;;
35110;SDS011;21290;50.158;8.658;2022-08-27T08:04:22;15.00;;;8.10;;
35110;SDS011;21290;50.158;8.658;2022-08-27T08:06:49;7.88;;;4.07;;
35110;SDS011;21290;50.158;8.658;2022-08-27T08:09:16;9.77;;;3.50;;
35110;SDS011;21290;50.158;8.658;2022-08-27T08:11:44;8.00;;;3.38;;
35110;SDS011;21290;50.158;8.658;2022-08-27T08:14:11;4.67;;;3.17;;
35110;SDS011;21290;50.158;8.658;2022-08-27T08:16:39;4.00;;;2.97;;
35110;SDS011;21290;50.158;8.658;2022-08-27T08:19:07;5.18;;;3.08;;
35110;SDS011;21290;50.158;8.658;2022-08-27T08:21:35;4.45;;;2.78;;
35110;SDS011;21290;50.158;8.658;2022-08-27T08:24:05;8.18;;;2.97;;
35110;SDS011;21290;50.158;8.658;2022-08-27T08:26:32;6.15;;;2.78;;
35110;SDS011;21290;50.158;8.658;2022-08-27T08:28:59;5.68;;;2.72;;
35110;SDS011;21290;50.158;8.658;2022-08-27T08:31:29;6.13;;;2.80;;
35110;SDS011;21290;50.158;8.658;2022-08-27T08:33:58;4.65;;;2.45;;
35110;SDS011;21290;50.158;8.658;2022-08-27T08:36:25;5.07;;;2.50;;
35110;SDS011;21290;50.158;8.658;2022-08-27T08:38:52;13.68;;;6.07;;
35110;SDS011;21290;50.158;8.658;2022-08-27T08:42:02;6.45;;;3.25;;
35110;SDS011;21290;50.158;8.658;2022-08-27T08:46:52;4.78;;;2.85;;
35110;SDS011;21290;50.158;8.658;2022-08-27T08:49:29;8.75;;;3.33;;
35110;SDS011;21290;50.158;8.658;2022-08-27T08:52:07;4.38;;;2.80;;
35110;SDS011;21290;50.158;8.658;2022-08-27T08:54:58;3.28;;;2.63;;
35110;SDS011;21290;50.158;8.658;2022-08-27T08:57:32;7.00;;;2.50;;
35110;SDS011;21290;50.158;8.658;2022-08-27T09:00:06;5.65;;;2.40;;
35110;SDS011;21290;50.158;8.658;2022-08-27T09:02:38;3.45;;;2.00;;
35110;SDS011;21290;50.158;8.658;2022-08-27T09:05:07;3.58;;;1.85;;
35110;SDS011;21290;50.158;8.658;2022-08-27T09:07:45;4.15;;;2.25;;
35110;SDS011;21290;50.158;8.658;2022-08-27T09:10:45;6.05;;;2.17;;
35110;SDS011;21290;50.158;8.658;2022-08-27T09:13:22;5.78;;;2.13;;
35110;SDS011;21290;50.158;8.658;2022-08-27T09:15:53;3.42;;;2.13;;
35110;SDS011;21290;50.158;8.658;2022-08-27T09:18:23;4.55;;;2.10;;
35110;SDS011;21290;50.158;8.658;2022-08-27T09:20:56;3.75;;;2.20;;
35110;SDS011;21290;50.158;8.658;2022-08-27T09:26:23;7.47;;;3.03;;
35110;SDS011;21290;50.158;8.658;2022-08-27T09:28:59;3.83;;;2.22;;
35110;SDS011;21290;50.158;8.658;2022-08-27T09:34:22;4.07;;;2.70;;
35110;SDS011;21290;50.158;8.658;2022-08-27T09:37:24;5.60;;;2.53;;
35110;SDS011;21290;50.158;8.658;2022-08-27T09:42:58;8.40;;;2.78;;
35110;SDS011;21290;50.158;8.658;2022-08-27T09:45:35;7.25;;;2.80;;
35110;SDS011;21290;50.158;8.658;2022-08-27T09:48:06;4.88;;;2.90;;
35110;SDS011;21290;50.158;8.658;2022-08-27T09:50:40;5.38;;;2.65;;
35110;SDS011;21290;50.158;8.658;2022-08-27T09:55:53;3.88;;;2.67;;
35110;SDS011;21290;50.158;8.658;2022-08-27T09:58:31;4.07;;;3.13;;
35110;SDS011;21290;50.158;8.658;2022-08-27T10:01:25;6.00;;;3.00;;
35110;SDS011;21290;50.158;8.658;2022-08-27T10:04:13;6.07;;;3.70;;
35110;SDS011;21290;50.158;8.658;2022-08-27T10:06:49;5.05;;;3.60;;
35110;SDS011;21290;50.158;8.658;2022-08-27T10:12:02;8.57;;;3.22;;
35110;SDS011;21290;50.158;8.658;2022-08-27T10:14:39;7.32;;;3.03;;
35110;SDS011;21290;50.158;8.658;2022-08-27T10:20:09;3.97;;;2.85;;
35110;SDS011;21290;50.158;8.658;2022-08-27T10:25:53;5.13;;;2.80;;
35110;SDS011;21290;50.158;8.658;2022-08-27T10:31:22;7.75;;;2.53;;
35110;SDS011;21290;50.158;8.658;2022-08-27T10:34:02;3.72;;;2.60;;
35110;SDS011;21290;50.158;8.658;2022-08-27T10:42:34;6.72;;;2.13;;
35110;SDS011;21290;50.158;8.658;2022-08-27T11:02:32;4.07;;;2.85;;
35110;SDS011;21290;50.158;8.658;2022-08-27T11:07:46;3.35;;;2.17;;
35110;SDS011;21290;50.158;8.658;2022-08-27T11:10:39;7.38;;;2.67;;
35110;SDS011;21290;50.158;8.658;2022-08-27T11:13:12;3.63;;;2.53;;
35110;SDS011;21290;50.158;8.658;2022-08-27T11:15:45;8.07;;;2.60;;
35110;SDS011;21290;50.158;8.658;2022-08-27T11:21:04;4.13;;;2.40;;
35110;SDS011;21290;50.158;8.658;2022-08-27T11:23:42;4.03;;;2.70;;
35110;SDS011;21290;50.158;8.658;2022-08-27T11:26:12;5.18;;;2.47;;
35110;SDS011;21290;50.158;8.658;2022-08-27T11:28:40;5.53;;;2.80;;
35110;SDS011;21290;50.158;8.658;2022-08-27T11:31:16;4.10;;;2.60;;
35110;SDS011;21290;50.158;8.658;2022-08-27T11:34:13;6.47;;;2.60;;
35110;SDS011;21290;50.158;8.658;2022-08-27T11:42:35;3.15;;;2.63;;
35110;SDS011;21290;50.158;8.658;2022-08-27T11:45:14;4.78;;;2.72;;
35110;SDS011;21290;50.158;8.658;2022-08-27T11:47:56;6.95;;;2.70;;
35110;SDS011;21290;50.158;8.658;2022-08-27T11:50:26;3.65;;;2.83;;
35110;SDS011;21290;50.158;8.658;2022-08-27T11:53:05;4.68;;;2.75;;
35110;SDS011;21290;50.158;8.658;2022-08-27T11:55:34;3.85;;;2.95;;
35110;SDS011;21290;50.158;8.658;2022-08-27T11:58:24;4.63;;;2.83;;
35110;SDS011;21290;50.158;8.658;2022-08-27T12:00:55;5.47;;;2.70;;
35110;SDS011;21290;50.158;8.658;2022-08-27T12:03:30;4.32;;;2.80;;
35110;SDS011;21290;50.158;8.658;2022-08-27T12:08:28;5.30;;;3.22;;
35110;SDS011;21290;50.158;8.658;2022-08-27T12:13:51;9.00;;;2.83;;
35110;SDS011;21290;50.158;8.658;2022-08-27T12:16:35;3.35;;;2.70;;
35110;SDS011;21290;50.158;8.658;2022-08-27T12:24:35;3.47;;;2.97;;
35110;SDS011;21290;50.158;8.658;2022-08-27T12:27:25;3.92;;;3.03;;
35110;SDS011;21290;50.158;8.658;2022-08-27T12:32:53;5.80;;;3.10;;
35110;SDS011;21290;50.158;8.658;2022-08-27T12:38:04;5.63;;;3.20;;
35110;SDS011;21290;50.158;8.658;2022-08-27T12:40:48;4.68;;;2.90;;
35110;SDS011;21290;50.158;8.658;2022-08-27T12:43:23;5.27;;;3.33;;
35110;SDS011;21290;50.158;8.658;2022-08-27T12:45:57;3.22;;;2.92;;
35110;SDS011;21290;50.158;8.658;2022-08-27T12:48:45;3.38;;;3.08;;
35110;SDS011;21290;50.158;8.658;2022-08-27T12:51:22;6.13;;;3.97;;
35110;SDS011;21290;50.158;8.658;2022-08-27T12:54:00;5.68;;;2.75;;
35110;SDS011;21290;50.158;8.658;2022-08-27T12:57:01;8.77;;;3.30;;
35110;SDS011;21290;50.158;8.658;2022-08-27T13:03:04;5.38;;;3.00;;
35110;SDS011;21290;50.158;8.658;2022-08-27T13:05:49;5.37;;;3.27;;
35110;SDS011;21290;50.158;8.658;2022-08-27T13:08:25;3.80;;;3.38;;
35110;SDS011;21290;50.158;8.658;2022-08-27T13:11:15;8.95;;;3.55;;
35110;SDS011;21290;50.158;8.658;2022-08-27T13:13:47;6.93;;;3.00;;
35110;SDS011;21290;50.158;8.658;2022-08-27T13:16:18;7.50;;;3.00;;
35110;SDS011;21290;50.158;8.658;2022-08-27T13:18:48;7.03;;;2.90;;
35110;SDS011;21290;50.158;8.658;2022-08-27T13:21:21;4.57;;;2.92;;
35110;SDS011;21290;50.158;8.658;2022-08-27T13:23:56;7.40;;;3.45;;
35110;SDS011;21290;50.158;8.658;2022-08-27T13:26:26;8.52;;;3.13;;
35110;SDS011;21290;50.158;8.658;2022-08-27T13:28:56;4.00;;;2.95;;
35110;SDS011;21290;50.158;8.658;2022-08-27T13:31:28;4.93;;;3.30;;
35110;SDS011;21290;50.158;8.658;2022-08-27T13:33:57;5.75;;;3.30;;
35110;SDS011;21290;50.158;8.658;2022-08-27T13:36:35;4.43;;;3.05;;
35110;SDS011;21290;50.158;8.658;2022-08-27T13:39:22;21.90;;;10.77;;
35110;SDS011;21290;50.158;8.658;2022-08-27T13:41:50;20.48;;;9.75;;
35110;SDS011;21290;50.158;8.658;2022-08-27T13:44:19;5.75;;;3.72;;
35110;SDS011;21290;50.158;8.658;2022-08-27T13:46:57;5.03;;;3.00;;
35110;SDS011;21290;50.158;8.658;2022-08-27T13:49:28;6.88;;;3.08;;
35110;SDS011;21290;50.158;8.658;2022-08-27T13:51:58;6.55;;;3.25;;
35110;SDS011;21290;50.158;8.658;2022-08-27T13:54:29;6.68;;;3.20;;
35110;SDS011;21290;50.158;8.658;2022-08-27T13:57:02;8.77;;;3.30;;
35110;SDS011;21290;50.158;8.658;2022-08-27T13:59:36;7.03;;;3.15;;
35110;SDS011;21290;50.158;8.658;2022-08-27T14:04:39;4.85;;;3.35;;
35110;SDS011;21290;50.158;8.658;2022-08-27T14:07:21;7.53;;;3.05;;
35110;SDS011;21290;50.158;8.658;2022-08-27T14:10:23;3.30;;;3.00;;
35110;SDS011;21290;50.158;8.658;2022-08-27T14:12:55;8.00;;;3.75;;
35110;SDS011;21290;50.158;8.658;2022-08-27T14:15:32;6.68;;;3.75;;
35110;SDS011;21290;50.158;8.658;2022-08-27T14:18:49;5.30;;;3.40;;
35110;SDS011;21290;50.158;8.658;2022-08-27T14:21:24;4.15;;;3.28;;
35110;SDS011;21290;50.158;8.658;2022-08-27T14:23:53;5.30;;;3.28;;
35110;SDS011;21290;50.158;8.658;2022-08-27T14:26:20;14.05;;;6.78;;
35110;SDS011;21290;50.158;8.658;2022-08-27T14:28:48;9.77;;;3.50;;
35110;SDS011;21290;50.158;8.658;2022-08-27T14:31:16;6.07;;;3.85;;
35110;SDS011;21290;50.158;8.658;2022-08-27T14:33:43;4.15;;;3.53;;
35110;SDS011;21290;50.158;8.658;2022-08-27T14:36:12;6.88;;;4.20;;
35110;SDS011;21290;50.158;8.658;2022-08-27T14:38:48;4.20;;;3.40;;
35110;SDS011;21290;50.158;8.658;2022-08-27T14:41:18;6.28;;;3.85;;
35110;SDS011;21290;50.158;8.658;2022-08-27T14:43:47;8.90;;;3.30;;
35110;SDS011;21290;50.158;8.658;2022-08-27T14:46:20;5.77;;;3.90;;
35110;SDS011;21290;50.158;8.658;2022-08-27T14:48:53;10.65;;;3.95;;
35110;SDS011;21290;50.158;8.658;2022-08-27T14:51:23;8.18;;;3.75;;
35110;SDS011;21290;50.158;8.658;2022-08-27T14:53:52;4.13;;;3.72;;
35110;SDS011;21290;50.158;8.658;2022-08-27T14:56:20;7.65;;;3.63;;
35110;SDS011;21290;50.158;8.658;2022-08-27T14:58:50;5.03;;;3.75;;
35110;SDS011;21290;50.158;8.658;2022-08-27T15:01:21;6.10;;;3.83;;
35110;SDS011;21290;50.158;8.658;2022-08-27T15:03:54;6.25;;;5.25;;
35110;SDS011;21290;50.158;8.658;2022-08-27T15:06:23;8.82;;;6.45;;
35110;SDS011;21290;50.158;8.658;2022-08-27T15:08:51;8.30;;;5.15;;
35110;SDS011;21290;50.158;8.658;2022-08-27T15:11:23;7.43;;;4.32;;
35110;SDS011;21290;50.158;8.658;2022-08-27T15:13:52;8.60;;;4.07;;
35110;SDS011;21290;50.158;8.658;2022-08-27T15:16:28;6.90;;;3.65;;
35110;SDS011;21290;50.158;8.658;2022-08-27T15:19:08;6.40;;;3.90;;
35110;SDS011;21290;50.158;8.658;2022-08-27T15:21:37;4.82;;;4.00;;
35110;SDS011;21290;50.158;8.658;2022-08-27T15:24:12;6.82;;;3.97;;
35110;SDS011;21290;50.158;8.658;2022-08-27T15:26:50;7.93;;;5.60;;
35110;SDS011;21290;50.158;8.658;2022-08-27T15:31:45;7.53;;;4.20;;
35110;SDS011;21290;50.158;8.658;2022-08-27T15:34:12;5.43;;;4.40;;
35110;SDS011;21290;50.158;8.658;2022-08-27T15:36:40;6.68;;;4.82;;
35110;SDS011;21290;50.158;8.658;2022-08-27T15:39:06;7.38;;;4.72;;
35110;SDS011;21290;50.158;8.658;2022-08-27T15:41:34;6.70;;;4.20;;
35110;SDS011;21290;50.158;8.658;2022-08-27T15:44:26;5.35;;;3.83;;
35110;SDS011;21290;50.158;8.658;2022-08-27T15:46:55;4.82;;;3.97;;
35110;SDS011;21290;50.158;8.658;2022-08-27T15:49:24;11.70;;;5.18;;
35110;SDS011;21290;50.158;8.658;2022-08-27T15:51:56;6.47;;;4.38;;
35110;SDS011;21290;50.158;8.658;2022-08-27T15:54:24;12.40;;;4.10;;
35110;SDS011;21290;50.158;8.658;2022-08-27T15:56:51;9.13;;;4.15;;
35110;SDS011;21290;50.158;8.658;2022-08-27T15:59:18;6.78;;;3.70;;
35110;SDS011;21290;50.158;8.658;2022-08-27T16:01:46;7.63;;;4.22;;
35110;SDS011;21290;50.158;8.658;2022-08-27T16:04:14;12.48;;;5.32;;
35110;SDS011;21290;50.158;8.658;2022-08-27T16:06:41;7.85;;;3.83;;
35110;SDS011;21290;50.158;8.658;2022-08-27T16:09:08;8.95;;;3.40;;
35110;SDS011;21290;50.158;8.658;2022-08-27T16:11:40;6.32;;;4.10;;
35110;SDS011;21290;50.158;8.658;2022-08-27T16:14:07;5.88;;;3.47;;
35110;SDS011;21290;50.158;8.658;2022-08-27T16:16:36;7.93;;;3.20;;
35110;SDS011;21290;50.158;8.658;2022-08-27T16:21:33;10.13;;;3.20;;
35110;SDS011;21290;50.158;8.658;2022-08-27T16:24:04;3.45;;;2.92;;
35110;SDS011;21290;50.158;8.658;2022-08-27T16:26:36;3.22;;;2.92;;
35110;SDS011;21290;50.158;8.658;2022-08-27T16:29:04;6.43;;;2.90;;
35110;SDS011;21290;50.158;8.658;2022-08-27T16:31:32;3.90;;;3.08;;
35110;SDS011;21290;50.158;8.658;2022-08-27T16:34:01;6.20;;;3.97;;
35110;SDS011;21290;50.158;8.658;2022-08-27T16:36:31;6.95;;;3.83;;
35110;SDS011;21290;50.158;8.658;2022-08-27T16:38:58;9.45;;;3.65;;
35110;SDS011;21290;50.158;8.658;2022-08-27T16:41:25;5.40;;;3.60;;
35110;SDS011;21290;50.158;8.658;2022-08-27T16:43:52;5.30;;;3.28;;
35110;SDS011;21290;50.158;8.658;2022-08-27T16:46:21;5.90;;;4.20;;
35110;SDS011;21290;50.158;8.658;2022-08-27T16:48:47;7.45;;;5.07;;